Time;durP1;ratioP1;P1;durP2;ratioP2;P2;SDS_P1;SDS_P2;PMS_P1;PMS_P2;Temp;Humidity;BMP_temperature;BMP_pressure;BME280_temperature;BME280_humidity;BME280_pressure;Samples;Min_cycle;Max_cycle;Signal;HPM_P1;HPM_P2
2021/03/08 00:01:23;;;;;;;;;;;3.40;99.90;;;;;;10523525;28;19924;-89
2021/03/08 00:06:25;;;;;;;;;;;3.50;99.90;;;;;;10520912;28;19928;-88
2021/03/08 00:11:27;;;;;;;;;;;3.40;99.90;;;;;;10520760;28;19924;-88
2021/03/08 00:16:28;;;;;;;;;;;4.20;99.90;;;;;;10536406;28;19924;-88
2021/03/08 00:21:30;;;;;;;;;;;3.50;99.90;;;;;;10520592;28;19934;-88
2021/03/08 00:26:31;;;;;;;;;;;4.40;99.90;;;;;;10533973;28;20338;-88
2021/03/08 00:31:48;;;;;;;;;;;5.30;99.90;;;;;;10537805;28;19943;-88
2021/03/08 00:36:50;;;;;;;;;;;3.90;99.90;;;;;;10542646;28;19995;-88
2021/03/08 00:41:51;;;;;;;;;;;3.40;99.90;;;;;;10545118;28;20301;-88
2021/03/08 00:46:53;;;;;;;;;;;3.40;99.90;;;;;;10545172;28;19924;-88
2021/03/08 00:51:54;;;;;;;;;;;3.50;99.90;;;;;;10539921;28;19924;-89
2021/03/08 00:56:55;;;;;;;;;;;3.50;99.90;;;;;;10544434;28;20282;-88
2021/03/08 01:02:08;;;;;;;;;;;3.50;99.90;;;;;;10544803;28;19928;-88
2021/03/08 01:07:10;;;;;;;;;;;3.40;99.90;;;;;;10558949;28;19983;-89
2021/03/08 01:12:12;;;;;;;;;;;3.40;99.90;;;;;;10536624;28;19935;-88
2021/03/08 01:17:13;;;;;;;;;;;3.40;99.90;;;;;;10519143;28;19930;-88
2021/03/08 01:22:15;;;;;;;;;;;3.50;99.90;;;;;;10560269;28;20367;-88
2021/03/08 01:27:16;;;;;;;;;;;3.80;99.90;;;;;;10526008;28;19928;-88
2021/03/08 01:32:27;;;;;;;;;;;3.30;99.90;;;;;;10543651;28;19935;-88
2021/03/08 01:37:29;;;;;;;;;;;3.30;99.90;;;;;;10528234;28;19929;-88
2021/03/08 01:42:30;;;;;;;;;;;3.30;99.90;;;;;;10501042;28;19947;-88
2021/03/08 01:47:32;;;;;;;;;;;3.30;99.90;;;;;;10500969;28;20019;-88
2021/03/08 01:52:33;;;;;;;;;;;3.60;99.90;;;;;;10541725;28;19924;-88
2021/03/08 01:57:35;;;;;;;;;;;3.30;99.90;;;;;;10540272;28;20299;-88
2021/03/08 02:02:50;;;;;;;;;;;3.50;99.90;;;;;;10542004;28;19928;-88
2021/03/08 02:07:51;;;;;;;;;;;4.40;99.90;;;;;;10525363;28;19924;-89
2021/03/08 02:13:11;;;;;;;;;;;4.60;99.90;;;;;;10500100;28;19929;-88
2021/03/08 02:18:35;;;;;;;;;;;3.20;99.90;;;;;;10525810;28;20321;-88
2021/03/08 02:23:55;;;;;;;;;;;3.20;99.90;;;;;;10541736;28;19924;-88
2021/03/08 02:28:59;;;;;;;;;;;3.20;99.90;;;;;;10512438;28;19931;-88
2021/03/08 02:34:06;;;;;;;;;;;3.20;99.90;;;;;;10500349;28;19931;-88
2021/03/08 02:39:09;;;;;;;;;;;3.20;99.90;;;;;;10516150;28;20383;-88
2021/03/08 02:44:12;;;;;;;;;;;3.20;99.90;;;;;;10498565;28;20011;-87
2021/03/08 02:49:15;;;;;;;;;;;4.80;99.90;;;;;;10522890;28;19930;-88
2021/03/08 02:54:19;;;;;;;;;;;3.20;99.90;;;;;;10581878;28;20361;-88
2021/03/08 02:59:21;;;;;;;;;;;3.70;99.90;;;;;;10582008;28;20400;-88
2021/03/08 03:04:23;;;;;;;;;;;3.10;99.90;;;;;;10582578;28;20442;-88
2021/03/08 03:09:25;;;;;;;;;;;3.10;99.90;;;;;;10564668;28;19924;-88
2021/03/08 03:14:30;;;;;;;;;;;3.10;99.90;;;;;;10581008;28;20429;-88
2021/03/08 03:19:35;;;;;;;;;;;3.10;99.90;;;;;;10563632;28;19923;-89
2021/03/08 03:24:37;;;;;;;;;;;3.00;99.90;;;;;;10563705;28;19927;-88
2021/03/08 03:29:38;;;;;;;;;;;3.10;99.90;;;;;;10563306;28;19932;-88
2021/03/08 03:34:41;;;;;;;;;;;3.10;99.90;;;;;;10562929;28;19931;-88
2021/03/08 03:39:43;;;;;;;;;;;3.10;99.90;;;;;;10563783;28;19924;-88
2021/03/08 03:44:44;;;;;;;;;;;3.10;99.90;;;;;;10563369;28;19930;-88
2021/03/08 03:49:45;;;;;;;;;;;3.10;99.90;;;;;;10581052;28;19967;-88
2021/03/08 03:54:47;;;;;;;;;;;3.20;99.90;;;;;;10562517;28;20382;-88
2021/03/08 03:59:54;;;;;;;;;;;3.20;99.90;;;;;;10562349;28;20034;-88
2021/03/08 04:05:00;;;;;;;;;;;3.30;99.90;;;;;;10562672;28;19930;-89
2021/03/08 04:10:02;;;;;;;;;;;4.30;99.90;;;;;;10579845;28;19923;-88
2021/03/08 04:15:06;;;;;;;;;;;3.40;99.90;;;;;;10562481;28;19930;-88
2021/03/08 04:20:11;;;;;;;;;;;3.40;99.90;;;;;;10580778;28;19931;-88
2021/03/08 04:25:17;;;;;;;;;;;3.40;99.90;;;;;;10562786;28;19924;-88
2021/03/08 04:30:18;;;;;;;;;;;3.40;99.90;;;;;;10562273;28;20370;-88
2021/03/08 04:35:22;;;;;;;;;;;3.30;99.90;;;;;;10579546;28;20275;-88
2021/03/08 04:40:24;;;;;;;;;;;3.40;99.90;;;;;;10580190;28;20006;-88
2021/03/08 04:45:25;;;;;;;;;;;3.40;99.90;;;;;;10561219;28;19931;-88
2021/03/08 04:50:27;;;;;;;;;;;3.60;99.90;;;;;;10561539;28;19923;-88
2021/03/08 04:55:29;;;;;;;;;;;3.90;99.90;;;;;;10578720;28;19947;-88
2021/03/08 05:00:31;;;;;;;;;;;3.30;99.90;;;;;;10561831;28;19965;-88
2021/03/08 05:05:33;;;;;;;;;;;3.30;99.90;;;;;;10561250;28;19928;-88
2021/03/08 05:10:36;;;;;;;;;;;3.50;99.90;;;;;;10561534;28;19924;-88
2021/03/08 05:15:38;;;;;;;;;;;3.30;99.90;;;;;;10560907;28;20362;-88
2021/03/08 05:20:39;;;;;;;;;;;3.30;99.90;;;;;;10562760;28;20388;-89
2021/03/08 05:25:41;;;;;;;;;;;3.40;99.90;;;;;;10568135;28;20366;-88
2021/03/08 05:30:42;;;;;;;;;;;3.40;99.90;;;;;;10568860;28;20020;-88
2021/03/08 05:35:46;;;;;;;;;;;3.30;99.90;;;;;;10568090;28;20275;-88
2021/03/08 05:40:51;;;;;;;;;;;3.40;99.90;;;;;;10568282;28;19928;-88
2021/03/08 05:45:58;;;;;;;;;;;3.30;99.90;;;;;;10568198;28;19924;-88
2021/03/08 06:02:56;;;;;;;;;;;3.30;99.90;;;;;;10579045;27;20290;-89
2021/03/08 06:08:30;;;;;;;;;;;4.30;99.90;;;;;;10526954;28;19924;-87
2021/03/08 06:13:35;;;;;;;;;;;3.30;99.90;;;;;;10511122;28;19924;-87
2021/03/08 06:18:42;;;;;;;;;;;4.10;99.90;;;;;;10527312;28;19924;-87
2021/03/08 06:23:44;;;;;;;;;;;3.40;99.90;;;;;;10526261;28;19932;-86
2021/03/08 06:28:46;;;;;;;;;;;3.40;99.90;;;;;;10525711;28;19924;-86
2021/03/08 06:33:47;;;;;;;;;;;3.40;99.90;;;;;;10525669;28;19924;-87
2021/03/08 06:38:49;;;;;;;;;;;3.40;99.90;;;;;;10543135;28;19928;-87
2021/03/08 06:43:50;;;;;;;;;;;3.40;99.90;;;;;;10526113;28;19924;-87
2021/03/08 06:48:51;;;;;;;;;;;3.40;99.90;;;;;;10526057;28;19924;-87
2021/03/08 06:53:53;;;;;;;;;;;3.60;99.90;;;;;;10525944;28;19925;-87
2021/03/08 06:59:12;;;;;;;;;;;3.50;99.90;;;;;;10525460;28;19924;-87
2021/03/08 07:04:13;;;;;;;;;;;3.50;99.90;;;;;;10541483;28;19931;-85
2021/03/08 07:09:15;;;;;;;;;;;3.70;99.90;;;;;;10523384;28;20430;-86
2021/03/08 07:14:22;;;;;;;;;;;3.70;99.90;;;;;;10520624;28;19932;-87
2021/03/08 07:19:24;;;;;;;;;;;3.70;99.90;;;;;;10522066;28;20003;-87
2021/03/08 07:24:25;;;;;;;;;;;3.80;99.90;;;;;;10521021;28;19924;-87
2021/03/08 07:29:26;;;;;;;;;;;3.90;99.90;;;;;;10521902;28;19952;-87
2021/03/08 07:34:29;;;;;;;;;;;4.00;99.90;;;;;;10523848;28;19931;-87
2021/03/08 07:39:30;;;;;;;;;;;5.70;99.90;;;;;;10540249;28;19924;-87
2021/03/08 07:44:32;;;;;;;;;;;4.90;99.90;;;;;;10540604;28;19959;-87
2021/03/08 07:49:37;;;;;;;;;;;5.80;99.90;;;;;;10541898;28;20015;-87
2021/03/08 07:54:55;;;;;;;;;;;4.60;99.90;;;;;;10523512;28;19954;-87
2021/03/08 07:59:57;;;;;;;;;;;4.40;99.90;;;;;;10521553;28;19967;-87
2021/03/08 08:04:58;;;;;;;;;;;4.50;99.90;;;;;;10495585;28;20403;-87
2021/03/08 08:10:05;;;;;;;;;;;4.50;99.90;;;;;;10496864;28;19925;-87
2021/03/08 08:15:08;;;;;;;;;;;4.50;99.90;;;;;;10498168;28;19928;-87
2021/03/08 08:20:10;;;;;;;;;;;4.50;99.90;;;;;;10480220;28;19928;-87
2021/03/08 08:25:12;;;;;;;;;;;4.60;99.90;;;;;;10479751;28;19925;-87
2021/03/08 08:30:14;;;;;;;;;;;4.70;99.90;;;;;;10496809;28;20283;-87
2021/03/08 08:35:22;;;;;;;;;;;4.90;99.90;;;;;;10479180;28;20398;-87
2021/03/08 08:40:23;;;;;;;;;;;4.90;99.90;;;;;;10479178;28;20363;-87
2021/03/08 08:45:31;;;;;;;;;;;4.90;99.90;;;;;;10479763;28;19924;-87
2021/03/08 08:50:42;;;;;;;;;;;4.90;99.90;;;;;;10480427;28;19982;-87
2021/03/08 08:55:44;;;;;;;;;;;5.00;99.90;;;;;;10481779;28;20012;-88
2021/03/08 09:06:53;;;;;;;;;;;5.30;99.90;;;;;;10441073;28;19924;-88
2021/03/08 09:11:56;;;;;;;;;;;5.50;99.90;;;;;;10503976;28;19924;-88
2021/03/08 09:17:10;;;;;;;;;;;5.60;99.90;;;;;;10504637;28;19929;-87
2021/03/08 09:22:20;;;;;;;;;;;5.60;99.90;;;;;;10504551;28;19990;-87
2021/03/08 09:27:22;;;;;;;;;;;5.60;99.90;;;;;;10502304;28;19931;-87
2021/03/08 09:32:23;;;;;;;;;;;5.80;99.90;;;;;;10503250;28;19931;-86
2021/03/08 09:37:25;;;;;;;;;;;5.80;99.90;;;;;;10503281;28;20341;-86
2021/03/08 09:42:36;;;;;;;;;;;6.00;99.90;;;;;;10484651;28;19925;-86
2021/03/08 09:47:38;;;;;;;;;;;6.10;99.90;;;;;;10501749;28;19947;-85
2021/03/08 09:52:46;;;;;;;;;;;6.30;99.90;;;;;;10500883;28;19924;-86
2021/03/08 09:57:48;;;;;;;;;;;6.30;99.90;;;;;;10484607;28;19929;-86
2021/03/08 10:02:56;;;;;;;;;;;6.60;99.90;;;;;;10496330;28;19924;-87
2021/03/08 10:07:57;;;;;;;;;;;6.50;99.90;;;;;;10526722;28;19928;-87
2021/03/08 10:12:59;;;;;;;;;;;6.40;99.90;;;;;;10542502;28;20298;-86
2021/03/08 10:18:01;;;;;;;;;;;8.20;99.90;;;;;;10542846;28;19983;-87
2021/03/08 10:23:12;;;;;;;;;;;6.50;99.90;;;;;;10508803;28;20379;-86
2021/03/08 10:28:14;;;;;;;;;;;7.70;99.90;;;;;;10500703;28;20294;-87
2021/03/08 10:33:18;;;;;;;;;;;6.30;99.90;;;;;;10543770;28;20286;-87
2021/03/08 10:38:28;;;;;;;;;;;6.50;99.90;;;;;;10525064;28;20440;-86
2021/03/08 10:43:31;;;;;;;;;;;6.70;99.90;;;;;;10489893;28;20016;-88
2021/03/08 10:48:32;;;;;;;;;;;6.70;99.90;;;;;;10503912;28;19925;-88
2021/03/08 10:53:33;;;;;;;;;;;6.90;99.90;;;;;;10484490;28;19924;-88
2021/03/08 10:58:36;;;;;;;;;;;7.10;99.90;;;;;;10481539;28;20288;-88
2021/03/08 11:03:39;;;;;;;;;;;7.50;99.90;;;;;;10513567;28;20000;-89
2021/03/08 11:08:41;;;;;;;;;;;7.20;99.90;;;;;;10524162;28;19969;-88
2021/03/08 11:13:43;;;;;;;;;;;7.20;99.90;;;;;;10523053;28;20030;-88
2021/03/08 11:18:44;;;;;;;;;;;7.30;99.90;;;;;;10485083;28;19924;-88
2021/03/08 11:23:46;;;;;;;;;;;7.20;99.90;;;;;;10482801;28;20363;-88
2021/03/08 11:28:48;;;;;;;;;;;7.40;99.90;;;;;;10481990;28;19982;-88
2021/03/08 11:33:50;;;;;;;;;;;7.60;99.90;;;;;;10463132;28;19962;-88
2021/03/08 11:38:51;;;;;;;;;;;8.00;99.90;;;;;;10480760;28;19971;-88
2021/03/08 11:43:53;;;;;;;;;;;8.40;99.90;;;;;;10463074;28;19978;-88
2021/03/08 11:49:02;;;;;;;;;;;8.20;99.90;;;;;;10507770;22;20022;-88
2021/03/08 11:54:03;;;;;;;;;;;8.20;99.90;;;;;;10481286;28;19932;-88
2021/03/08 11:59:04;;;;;;;;;;;8.40;99.90;;;;;;10492556;28;20398;-85
2021/03/08 12:04:07;;;;;;;;;;;8.70;99.90;;;;;;10523782;28;19950;-85
2021/03/08 12:09:08;;;;;;;;;;;8.70;99.90;;;;;;10531421;28;19932;-85
2021/03/08 12:14:09;;;;;;;;;;;8.50;99.90;;;;;;10539093;28;19935;-85
2021/03/08 12:19:11;;;;;;;;;;;8.20;99.90;;;;;;10555137;28;19924;-85
2021/03/08 12:24:12;;;;;;;;;;;8.30;99.90;;;;;;10516003;28;19924;-86
2021/03/08 12:29:14;;;;;;;;;;;8.20;99.90;;;;;;10517354;28;19928;-86
2021/03/08 12:34:15;;;;;;;;;;;9.50;99.90;;;;;;10564588;28;19924;-86
2021/03/08 12:39:16;;;;;;;;;;;8.30;99.90;;;;;;10566750;28;19935;-86
2021/03/08 12:44:18;;;;;;;;;;;8.60;99.90;;;;;;10558713;28;19928;-86
2021/03/08 12:49:19;;;;;;;;;;;8.40;99.90;;;;;;10581506;28;19928;-85
2021/03/08 12:54:23;;;;;;;;;;;9.50;99.90;;;;;;10566093;28;20328;-86
2021/03/08 12:59:26;;;;;;;;;;;8.30;99.90;;;;;;10565531;28;19928;-85
2021/03/08 13:04:27;;;;;;;;;;;9.60;99.90;;;;;;10583941;28;19934;-86
2021/03/08 13:09:29;;;;;;;;;;;7.80;99.90;;;;;;10584242;28;19931;-85
2021/03/08 13:14:30;;;;;;;;;;;8.10;99.90;;;;;;10557033;28;19928;-85
2021/03/08 13:19:31;;;;;;;;;;;8.20;99.90;;;;;;10508115;28;20366;-85
2021/03/08 13:24:32;;;;;;;;;;;8.50;99.90;;;;;;10527664;28;20393;-85
2021/03/08 13:29:34;;;;;;;;;;;8.30;99.90;;;;;;10548338;28;19927;-85
2021/03/08 13:34:36;;;;;;;;;;;9.90;99.90;;;;;;10564757;28;19950;-85
2021/03/08 13:39:37;;;;;;;;;;;8.50;99.90;;;;;;10523053;28;19935;-85
2021/03/08 13:44:38;;;;;;;;;;;8.70;99.90;;;;;;10542230;28;19932;-85
2021/03/08 13:49:39;;;;;;;;;;;9.00;99.90;;;;;;10558008;28;19924;-85
2021/03/08 13:54:41;;;;;;;;;;;9.00;99.90;;;;;;10564714;28;19959;-85
2021/03/08 13:59:42;;;;;;;;;;;8.40;99.90;;;;;;10562529;28;19934;-85
2021/03/08 14:04:44;;;;;;;;;;;8.70;99.90;;;;;;10543070;28;20019;-85
2021/03/08 14:09:45;;;;;;;;;;;8.50;99.90;;;;;;10540468;28;19928;-85
2021/03/08 14:14:47;;;;;;;;;;;8.50;99.90;;;;;;10520634;28;20268;-85
2021/03/08 14:19:48;;;;;;;;;;;8.70;99.90;;;;;;10545290;28;19962;-85
2021/03/08 14:24:49;;;;;;;;;;;9.20;99.90;;;;;;10543381;28;19973;-85
2021/03/08 14:29:51;;;;;;;;;;;9.00;99.50;;;;;;10549565;28;19927;-85
2021/03/08 14:34:52;;;;;;;;;;;9.30;99.90;;;;;;10553447;28;20022;-85
2021/03/08 14:39:54;;;;;;;;;;;9.60;98.90;;;;;;10530118;28;19935;-84
2021/03/08 14:44:55;;;;;;;;;;;9.70;99.70;;;;;;10563677;28;20399;-85
2021/03/08 14:49:56;;;;;;;;;;;9.30;98.70;;;;;;10534446;28;19962;-87
2021/03/08 14:54:58;;;;;;;;;;;8.90;98.50;;;;;;10530073;28;19967;-85
2021/03/08 15:00:03;;;;;;;;;;;9.00;99.90;;;;;;10517547;28;20294;-86
2021/03/08 15:05:07;;;;;;;;;;;9.20;99.50;;;;;;10518120;28;19928;-85
2021/03/08 15:10:09;;;;;;;;;;;9.00;98.80;;;;;;10563438;28;19931;-85
2021/03/08 15:15:12;;;;;;;;;;;8.90;98.40;;;;;;10551618;28;19927;-85
2021/03/08 15:20:14;;;;;;;;;;;8.90;99.70;;;;;;10535386;28;20795;-84
2021/03/08 15:25:16;;;;;;;;;;;9.00;98.40;;;;;;10517929;28;20404;-84
2021/03/08 15:30:17;;;;;;;;;;;10.60;98.70;;;;;;10532321;28;19924;-86
2021/03/08 15:35:18;;;;;;;;;;;8.80;96.80;;;;;;10551289;28;20390;-86
2021/03/08 15:40:25;;;;;;;;;;;10.10;98.30;;;;;;10559653;28;19971;-86
2021/03/08 15:45:26;;;;;;;;;;;9.00;98.50;;;;;;10540993;28;20283;-85
2021/03/08 15:50:29;;;;;;;;;;;8.60;97.30;;;;;;10571783;28;20372;-86
2021/03/08 15:55:30;;;;;;;;;;;8.70;98.00;;;;;;10526312;28;19932;-86
2021/03/08 16:00:32;;;;;;;;;;;8.80;96.90;;;;;;10534746;28;20390;-86
2021/03/08 16:05:33;;;;;;;;;;;8.70;97.40;;;;;;10537649;28;19935;-86
2021/03/08 16:10:34;;;;;;;;;;;8.60;97.30;;;;;;10568923;28;19938;-86
2021/03/08 16:15:36;;;;;;;;;;;8.40;97.60;;;;;;10553318;28;19931;-85
2021/03/08 16:20:54;;;;;;;;;;;8.70;96.30;;;;;;10545580;28;20028;-86
2021/03/08 16:25:55;;;;;;;;;;;8.20;96.90;;;;;;10517422;28;19967;-86
2021/03/08 16:31:00;;;;;;;;;;;8.00;98.90;;;;;;10534720;28;19928;-86
2021/03/08 16:36:02;;;;;;;;;;;8.00;98.20;;;;;;10548592;28;20355;-86
2021/03/08 16:41:04;;;;;;;;;;;8.00;96.70;;;;;;10529222;28;19928;-86
2021/03/08 16:46:07;;;;;;;;;;;7.90;99.90;;;;;;10556773;28;19971;-86
2021/03/08 16:51:09;;;;;;;;;;;7.80;99.60;;;;;;10555916;28;19932;-86
2021/03/08 16:56:11;;;;;;;;;;;7.70;99.30;;;;;;10573223;28;19930;-86
2021/03/08 17:01:12;;;;;;;;;;;7.70;99.90;;;;;;10547372;28;19923;-86
2021/03/08 17:06:13;;;;;;;;;;;7.90;99.90;;;;;;10539567;28;19924;-86
2021/03/08 17:11:14;;;;;;;;;;;7.70;99.90;;;;;;10535123;28;19934;-87
2021/03/08 17:16:16;;;;;;;;;;;7.40;99.90;;;;;;10547288;28;19935;-86
2021/03/08 17:21:17;;;;;;;;;;;9.00;99.90;;;;;;10523408;28;19943;-87
2021/03/08 17:26:18;;;;;;;;;;;7.20;99.90;;;;;;10541563;28;19935;-86
2021/03/08 17:31:19;;;;;;;;;;;7.00;99.90;;;;;;10522628;28;20018;-86
2021/03/08 17:36:21;;;;;;;;;;;7.00;99.90;;;;;;10534678;28;19924;-86
2021/03/08 17:41:22;;;;;;;;;;;6.80;99.90;;;;;;10532899;28;19943;-85
2021/03/08 17:46:23;;;;;;;;;;;8.40;99.90;;;;;;10565763;28;19924;-85
2021/03/08 17:51:25;;;;;;;;;;;6.80;99.90;;;;;;10523393;22;19932;-88
2021/03/08 17:56:26;;;;;;;;;;;6.60;99.90;;;;;;10536246;28;19928;-88
2021/03/08 18:01:48;;;;;;;;;;;7.70;99.90;;;;;;10536508;28;19928;-88
2021/03/08 18:06:49;;;;;;;;;;;6.40;99.90;;;;;;10516575;28;19969;-88
2021/03/08 18:11:50;;;;;;;;;;;6.30;99.90;;;;;;10496961;28;20402;-88
2021/03/08 18:16:51;;;;;;;;;;;6.30;99.90;;;;;;10502633;28;20397;-88
2021/03/08 18:21:53;;;;;;;;;;;6.40;99.90;;;;;;10525214;28;19978;-88
2021/03/08 18:26:55;;;;;;;;;;;6.20;99.90;;;;;;10508530;28;20035;-88
2021/03/08 18:31:56;;;;;;;;;;;8.30;99.90;;;;;;10519422;28;19938;-88
2021/03/08 18:36:58;;;;;;;;;;;6.00;99.90;;;;;;10518080;28;19928;-88
2021/03/08 18:42:03;;;;;;;;;;;7.40;99.90;;;;;;10513135;28;20027;-88
2021/03/08 18:47:04;;;;;;;;;;;6.00;99.90;;;;;;10495375;28;19936;-88
2021/03/08 18:52:06;;;;;;;;;;;6.00;99.90;;;;;;10531700;28;19977;-88
2021/03/08 18:57:07;;;;;;;;;;;5.90;99.90;;;;;;10555373;28;20286;-88
2021/03/08 19:02:09;;;;;;;;;;;5.90;99.90;;;;;;10523792;28;19932;-87
2021/03/08 19:07:10;;;;;;;;;;;5.80;99.90;;;;;;10556557;28;19935;-87
2021/03/08 19:12:12;;;;;;;;;;;5.90;99.90;;;;;;10525278;28;20363;-88
2021/03/08 19:17:13;;;;;;;;;;;5.70;99.90;;;;;;10533620;28;19934;-87
2021/03/08 19:22:14;;;;;;;;;;;7.60;99.90;;;;;;10550915;28;19963;-88
2021/03/08 19:27:16;;;;;;;;;;;6.10;99.90;;;;;;10555655;28;19928;-87
2021/03/08 19:32:17;;;;;;;;;;;6.10;99.90;;;;;;10539886;28;20156;-87
2021/03/08 19:37:18;;;;;;;;;;;6.50;99.90;;;;;;10529929;28;19924;-88
2021/03/08 19:42:20;;;;;;;;;;;6.80;99.90;;;;;;10546291;28;20270;-87
2021/03/08 19:47:21;;;;;;;;;;;8.20;99.90;;;;;;10565499;28;19928;-88
2021/03/08 19:52:23;;;;;;;;;;;6.00;99.90;;;;;;10564828;28;19931;-88
2021/03/08 19:57:24;;;;;;;;;;;5.90;99.90;;;;;;10515754;28;20370;-88
2021/03/08 20:02:25;;;;;;;;;;;5.80;99.90;;;;;;10512016;28;19924;-87
2021/03/08 20:07:27;;;;;;;;;;;5.70;99.90;;;;;;10547415;28;19924;-88
2021/03/08 20:12:33;;;;;;;;;;;7.80;99.90;;;;;;10577249;28;19923;-88
2021/03/08 20:17:35;;;;;;;;;;;5.80;99.90;;;;;;10542145;28;19934;-88
2021/03/08 20:22:37;;;;;;;;;;;5.80;99.90;;;;;;10527858;28;19959;-87
2021/03/08 20:27:39;;;;;;;;;;;6.00;99.90;;;;;;10547496;28;19930;-87
2021/03/08 20:32:40;;;;;;;;;;;6.10;99.90;;;;;;10557662;28;20384;-88
2021/03/08 20:37:42;;;;;;;;;;;5.90;99.90;;;;;;10532032;28;19924;-87
2021/03/08 20:42:43;;;;;;;;;;;6.20;99.90;;;;;;10522407;28;19924;-87
2021/03/08 20:47:46;;;;;;;;;;;5.60;99.90;;;;;;10539117;28;19932;-88
2021/03/08 20:52:48;;;;;;;;;;;5.70;99.90;;;;;;10529666;28;19931;-88
2021/03/08 20:57:49;;;;;;;;;;;5.50;99.90;;;;;;10529926;28;19928;-87
2021/03/08 21:02:50;;;;;;;;;;;6.00;99.90;;;;;;10556116;28;20002;-88
2021/03/08 21:07:52;;;;;;;;;;;5.60;99.90;;;;;;10572008;28;19969;-87
2021/03/08 21:12:53;;;;;;;;;;;5.40;99.90;;;;;;10545508;28;19930;-88
2021/03/08 21:17:54;;;;;;;;;;;5.50;99.90;;;;;;10547673;28;19924;-88
2021/03/08 21:22:56;;;;;;;;;;;5.40;99.90;;;;;;10541330;28;19982;-88
2021/03/08 21:27:58;;;;;;;;;;;6.30;99.90;;;;;;10571430;28;19924;-87
2021/03/08 21:33:00;;;;;;;;;;;5.30;99.90;;;;;;10575774;28;19950;-87
2021/03/08 21:38:02;;;;;;;;;;;7.00;99.90;;;;;;10527276;28;20290;-87
2021/03/08 21:43:03;;;;;;;;;;;5.20;99.90;;;;;;10550417;28;19928;-87
2021/03/08 21:48:15;;;;;;;;;;;5.30;99.90;;;;;;10587303;28;20377;-87
2021/03/08 21:53:17;;;;;;;;;;;5.40;99.90;;;;;;10554574;28;19938;-87
2021/03/08 21:58:18;;;;;;;;;;;5.10;99.90;;;;;;10510696;28;19979;-87
2021/03/08 22:03:19;;;;;;;;;;;7.60;99.90;;;;;;10528014;28;20018;-87
2021/03/08 22:08:34;;;;;;;;;;;5.10;99.90;;;;;;10546652;28;20397;-87
2021/03/08 22:13:38;;;;;;;;;;;5.10;99.90;;;;;;10569857;28;19962;-87
2021/03/08 22:18:39;;;;;;;;;;;5.00;99.90;;;;;;10582201;28;19971;-87
2021/03/08 22:23:40;;;;;;;;;;;4.90;99.90;;;;;;10546771;28;19931;-87
2021/03/08 22:28:42;;;;;;;;;;;5.30;99.90;;;;;;10581657;28;19924;-87
2021/03/08 22:33:43;;;;;;;;;;;4.80;99.90;;;;;;10526218;28;19924;-87
2021/03/08 22:38:45;;;;;;;;;;;7.20;99.90;;;;;;10530760;28;19949;-87
2021/03/08 22:43:46;;;;;;;;;;;5.40;99.90;;;;;;10585530;28;20367;-87
2021/03/08 22:49:00;;;;;;;;;;;5.00;99.90;;;;;;10579928;28;19982;-87
2021/03/08 22:54:02;;;;;;;;;;;4.90;99.90;;;;;;10575275;28;19923;-86
2021/03/08 22:59:03;;;;;;;;;;;4.90;99.90;;;;;;10566842;28;20006;-86
2021/03/08 23:04:05;;;;;;;;;;;4.60;99.90;;;;;;10559326;28;19924;-86
2021/03/08 23:09:08;;;;;;;;;;;4.70;99.90;;;;;;10532580;28;19931;-86
2021/03/08 23:14:09;;;;;;;;;;;5.50;99.90;;;;;;10581766;28;19966;-86
2021/03/08 23:19:21;;;;;;;;;;;5.20;99.90;;;;;;10559453;28;19924;-86
2021/03/08 23:24:22;;;;;;;;;;;4.60;99.90;;;;;;10548732;28;19947;-86
2021/03/08 23:29:24;;;;;;;;;;;6.40;99.90;;;;;;10526526;28;19924;-86
2021/03/08 23:34:25;;;;;;;;;;;4.50;99.90;;;;;;10542597;28;19931;-85
2021/03/08 23:39:27;;;;;;;;;;;4.50;99.90;;;;;;10581347;28;19924;-86
2021/03/08 23:44:28;;;;;;;;;;;4.40;99.90;;;;;;10565899;28;19924;-85
2021/03/08 23:49:43;;;;;;;;;;;4.30;99.90;;;;;;10538709;22;19924;-86
2021/03/08 23:54:45;;;;;;;;;;;4.40;99.90;;;;;;10501523;28;19924;-86
2021/03/08 23:59:46;;;;;;;;;;;5.10;99.90;;;;;;10497437;28;19931;-86
